createdAt,value
2019-01-05T00:00:11.081Z,22.4
2019-01-05T00:01:00.611Z,22.4
2019-01-05T00:01:51.222Z,22.5
2019-01-05T00:02:41.846Z,22.5
2019-01-05T00:03:31.686Z,22.5
2019-01-05T00:04:21.126Z,22.6
2019-01-05T00:05:11.238Z,22.5
2019-01-05T00:06:01.777Z,22.5
2019-01-05T00:06:51.824Z,22.5
2019-01-05T00:07:41.923Z,22.6
2019-01-05T00:08:31.948Z,22.5
2019-01-05T00:09:21.748Z,22.6
2019-01-05T00:10:11.774Z,22.6
2019-01-05T00:11:01.623Z,22.6
2019-01-05T00:11:52.198Z,22.6
2019-01-05T00:12:41.685Z,22.6
2019-01-05T00:13:32.620Z,22.6
2019-01-05T00:14:21.583Z,22.7
2019-01-05T00:15:12.118Z,22.7
2019-01-05T00:33:26.149Z,22.9
2019-01-05T00:34:16.202Z,22.9
2019-01-05T00:35:05.331Z,22.9
2019-01-05T00:35:55.194Z,22.8
2019-01-05T00:36:45.266Z,22.9
2019-01-05T00:37:35.651Z,22.9
2019-01-05T00:38:26.504Z,22.9
2019-01-05T00:39:15.504Z,22.9
2019-01-05T00:40:05.834Z,22.9
2019-01-05T00:40:56.132Z,22.9
2019-01-05T00:41:45.359Z,22.9
2019-01-05T00:42:36.269Z,22.9
2019-01-05T00:43:26.046Z,22.9
2019-01-05T00:44:15.536Z,22.9
2019-01-05T00:45:06.413Z,22.9
2019-01-05T00:45:56.458Z,23
2019-01-05T00:46:45.964Z,23
2019-01-05T00:47:36.588Z,23
2019-01-05T00:48:26.931Z,23.1
2019-01-05T00:49:16.401Z,23.1
2019-01-05T00:50:06.228Z,23.1
2019-01-05T00:50:56.895Z,23
2019-01-05T00:51:47.685Z,23
2019-01-05T00:52:36.398Z,23.1
2019-01-05T00:53:26.178Z,23.1
2019-01-05T00:54:17.313Z,23.1
2019-01-05T00:55:07.175Z,23.1
2019-01-05T00:55:57.724Z,23.1
2019-01-05T00:56:47.470Z,23.1
2019-01-05T00:57:37.253Z,23.1
2019-01-05T00:58:26.780Z,23.1
2019-01-05T00:59:17.719Z,23.1
2019-01-05T01:00:07.181Z,23.1
2019-01-05T01:00:57.807Z,23.1
2019-01-05T01:01:47.795Z,23.1
2019-01-05T01:02:38.200Z,23.2
2019-01-05T01:03:26.017Z,23.3
2019-01-05T01:04:17.385Z,23.3
2019-01-05T01:05:06.965Z,23.3
2019-01-05T01:05:57.270Z,23.3
2019-01-05T01:06:48.172Z,23.3
2019-01-05T01:07:37.648Z,23.2
2019-01-05T01:08:27.471Z,23.2
2019-01-05T01:09:18.947Z,23.2
2019-01-05T01:10:08.716Z,23.2
2019-01-05T01:10:58.174Z,23.3
2019-01-05T01:11:48.717Z,23.3
2019-01-05T01:12:37.169Z,23.3
2019-01-05T01:13:28.077Z,23.3
2019-01-05T01:14:18.415Z,23.3
2019-01-05T01:15:07.921Z,23.4
2019-01-05T01:15:58.514Z,23.4
2019-01-05T01:16:47.480Z,23.4
2019-01-05T01:17:37.819Z,23.4
2019-01-05T01:18:29.249Z,23.3
2019-01-05T01:19:18.751Z,23.3
2019-01-05T01:20:08.854Z,23.3
2019-01-05T01:20:58.857Z,23.4
2019-01-05T01:21:49.683Z,23.4
2019-01-05T01:22:39.224Z,23.4
2019-01-05T01:23:29.026Z,23.4
2019-01-05T01:24:18.009Z,23.4
2019-01-05T01:25:09.724Z,23.4
2019-01-05T01:25:58.589Z,23.4
2019-01-05T01:26:49.477Z,23.4
2019-01-05T01:27:39.284Z,23.4
2019-01-05T01:28:28.618Z,23.4
2019-01-05T01:29:19.354Z,23.4
2019-01-05T01:30:10.056Z,23.4
2019-01-05T01:31:00.036Z,23.4
2019-01-05T01:31:49.871Z,23.4
2019-01-05T01:32:39.713Z,23.4
2019-01-05T01:33:30.493Z,23.4
2019-01-05T01:34:20.249Z,23.5
2019-01-05T01:35:09.606Z,23.5
2019-01-05T01:36:00.106Z,23.6
2019-01-05T01:36:49.582Z,23.6
2019-01-05T01:37:40.196Z,23.5
2019-01-05T01:38:29.653Z,23.5
2019-01-05T01:39:19.476Z,23.5
2019-01-05T01:40:10.393Z,23.5
2019-01-05T01:41:00.413Z,23.4
2019-01-05T01:41:50.513Z,23.5
2019-01-05T01:42:40.030Z,23.5
2019-01-05T01:43:31.143Z,23.6
2019-01-05T01:44:20.419Z,23.5
2019-01-05T01:45:09.908Z,23.6
2019-01-05T01:46:01.060Z,23.6
2019-01-05T01:46:50.269Z,23.6
2019-01-05T01:47:40.392Z,23.6
2019-01-05T01:48:31.447Z,23.6
2019-01-05T01:49:21.557Z,23.6
2019-01-05T01:50:11.849Z,23.6
2019-01-05T01:51:00.867Z,23.6
2019-01-05T01:51:50.881Z,23.6
2019-01-05T01:52:41.530Z,23.6
2019-01-05T01:53:32.347Z,23.6
2019-01-05T01:54:21.619Z,23.6
2019-01-05T01:55:11.152Z,23.6
2019-01-05T01:56:01.657Z,23.6
2019-01-05T01:56:51.224Z,23.7
2019-01-05T01:57:40.774Z,23.7
2019-01-05T01:58:32.214Z,23.7
2019-01-05T01:59:22.239Z,23.8
2019-01-05T02:00:11.484Z,23.7
2019-01-05T02:01:02.134Z,23.7
2019-01-05T02:01:51.038Z,23.7
2019-01-05T02:02:41.876Z,23.7
2019-01-05T02:03:32.269Z,23.7
2019-01-05T02:04:21.456Z,23.8
2019-01-05T02:05:12.084Z,23.7
2019-01-05T02:06:02.104Z,23.7
2019-01-05T02:06:53.057Z,23.8
2019-01-05T02:07:41.979Z,23.8
2019-01-05T02:08:32.886Z,23.8
2019-01-05T02:09:22.393Z,23.8
2019-01-05T02:10:12.426Z,23.8
2019-01-05T02:11:03.323Z,23.8
2019-01-05T02:11:52.813Z,23.8
2019-01-05T02:12:42.836Z,23.8
2019-01-05T02:13:33.273Z,23.8
2019-01-05T02:14:22.181Z,23.8
2019-01-05T02:15:12.786Z,23.8
2019-01-05T02:16:03.093Z,23.8
2019-01-05T02:16:53.641Z,23.8
2019-01-05T02:17:42.901Z,23.9
2019-01-05T02:18:34.821Z,23.8
2019-01-05T02:19:22.753Z,23.9
2019-01-05T02:20:13.098Z,23.9
2019-01-05T02:21:02.617Z,23.8
2019-01-05T02:21:53.450Z,23.8
2019-01-05T02:22:43.235Z,23.8
2019-01-05T02:23:33.330Z,23.8
2019-01-05T02:24:23.650Z,23.8
2019-01-05T02:25:13.725Z,23.9
2019-01-05T02:26:03.783Z,23.9
2019-01-05T02:26:53.579Z,23.9
2019-01-05T02:27:44.190Z,23.9
2019-01-05T02:28:33.994Z,23.9
2019-01-05T02:29:23.160Z,23.9
2019-01-05T02:30:13.586Z,23.9
2019-01-05T02:31:03.417Z,23.9
2019-01-05T02:31:53.817Z,23.9
2019-01-05T02:32:43.733Z,23.9
2019-01-05T02:33:34.553Z,23.9
2019-01-05T02:34:24.683Z,23.9
2019-01-05T02:35:14.432Z,23.9
2019-01-05T02:36:03.969Z,23.9
2019-01-05T02:36:53.735Z,23.9
2019-01-05T02:37:44.449Z,23.9
2019-01-05T02:38:33.901Z,23.9
2019-01-05T02:39:25.366Z,23.9
2019-01-05T02:40:14.229Z,23.9
2019-01-05T02:41:04.884Z,23.9
2019-01-05T02:41:54.669Z,23.9
2019-01-05T02:42:45.497Z,23.9
2019-01-05T02:43:35.036Z,23.9
2019-01-05T02:44:24.216Z,23.9
2019-01-05T02:45:15.696Z,23.9
2019-01-05T02:46:04.711Z,23.9
2019-01-05T02:46:55.176Z,23.9
2019-01-05T02:47:45.093Z,23.9
2019-01-05T02:48:34.519Z,23.9
2019-01-05T02:49:25.712Z,23.9
2019-01-05T02:50:15.131Z,23.9
2019-01-05T02:51:04.922Z,24
2019-01-05T02:51:56.094Z,24
2019-01-05T02:52:45.919Z,24
2019-01-05T02:53:35.643Z,24
2019-01-05T02:54:25.155Z,23.9
2019-01-05T02:55:15.474Z,24
2019-01-05T02:56:05.523Z,24
2019-01-05T02:56:55.346Z,24
2019-01-05T02:57:46.627Z,24
2019-01-05T02:58:35.990Z,24.1
2019-01-05T02:59:26.028Z,24.1
2019-01-05T03:00:15.845Z,24.1
2019-01-05T03:01:06.456Z,24.1
2019-01-05T03:01:55.112Z,24.1
2019-01-05T03:02:46.328Z,24
2019-01-05T03:03:36.387Z,24.1
2019-01-05T03:04:26.120Z,24.1
2019-01-05T03:05:16.171Z,24.1
2019-01-05T03:06:06.486Z,24.1
2019-01-05T03:06:55.748Z,24.1
2019-01-05T03:07:47.315Z,24.1
2019-01-05T03:08:36.422Z,24.1
2019-01-05T03:09:27.023Z,24.1
2019-01-05T03:10:16.215Z,24.1
2019-01-05T03:11:05.729Z,24.1
2019-01-05T03:11:56.909Z,24.1
2019-01-05T03:12:47.496Z,24.1
2019-01-05T03:13:36.798Z,24.1
2019-01-05T03:14:27.197Z,24.1
2019-01-05T03:15:17.142Z,24.1
2019-01-05T03:16:06.635Z,24.1
2019-01-05T03:16:55.923Z,24.1
2019-01-05T03:17:47.924Z,24.1
2019-01-05T03:18:37.709Z,24
2019-01-05T03:19:27.485Z,24.1
2019-01-05T03:20:17.515Z,24.1
2019-01-05T03:21:08.109Z,24.1
2019-01-05T03:21:57.849Z,24.1
2019-01-05T03:22:47.679Z,24.1
2019-01-05T03:23:37.780Z,24.1
2019-01-05T03:24:26.631Z,24.1
2019-01-05T03:25:17.006Z,24.1
2019-01-05T03:26:07.859Z,24.2
2019-01-05T03:26:57.658Z,24.1
2019-01-05T03:27:47.432Z,24.1
2019-01-05T03:28:38.321Z,24.1
2019-01-05T03:29:27.824Z,24.1
2019-01-05T03:30:18.750Z,24.1
2019-01-05T03:31:09.008Z,24.1
2019-01-05T03:31:58.132Z,24.2
2019-01-05T03:32:48.497Z,24.2
2019-01-05T03:33:37.834Z,24.2
2019-01-05T03:34:28.432Z,24.3
2019-01-05T03:35:18.230Z,24.3
2019-01-05T03:36:08.292Z,24.2
2019-01-05T03:36:58.106Z,24.2
2019-01-05T03:37:48.719Z,24.2
2019-01-05T03:38:38.479Z,24.2
2019-01-05T03:39:28.323Z,24.1
2019-01-05T03:40:19.629Z,24.2
2019-01-05T03:41:08.338Z,24.1
2019-01-05T03:41:58.934Z,24.2
2019-01-05T03:42:49.058Z,24.2
2019-01-05T03:43:38.526Z,24.2
2019-01-05T03:44:28.863Z,24.3
2019-01-05T03:45:18.638Z,24.3
2019-01-05T03:46:08.772Z,24.3
2019-01-05T03:46:59.025Z,24.3
2019-01-05T03:47:47.973Z,24.3
2019-01-05T03:48:39.916Z,24.3
2019-01-05T03:49:29.502Z,24.3
2019-01-05T03:50:19.799Z,24.4
2019-01-05T03:51:09.803Z,24.3
2019-01-05T03:51:58.527Z,24.4
2019-01-05T03:52:49.117Z,24.4
2019-01-05T03:53:39.412Z,24.4
2019-01-05T03:54:29.755Z,24.4
2019-01-05T03:55:20.170Z,24.4
2019-01-05T03:56:09.050Z,24.4
2019-01-05T03:56:59.679Z,24.4
2019-01-05T03:57:50.002Z,24.4
2019-01-05T03:58:39.495Z,24.4
2019-01-05T03:59:30.140Z,24.5
2019-01-05T04:00:19.694Z,24.5
2019-01-05T04:01:10.792Z,24.6
2019-01-05T04:02:00.270Z,24.6
2019-01-05T04:02:50.688Z,24.6
2019-01-05T04:03:40.345Z,24.6
2019-01-05T04:04:30.731Z,24.6
2019-01-05T04:05:20.569Z,24.6
2019-01-05T04:06:10.025Z,24.6
2019-01-05T04:07:00.366Z,24.6
2019-01-05T04:07:50.199Z,24.6
2019-01-05T04:08:40.233Z,24.6
2019-01-05T04:09:30.852Z,24.6
2019-01-05T04:10:20.288Z,24.6
2019-01-05T04:11:09.499Z,24.6
2019-01-05T04:12:01.253Z,24.6
2019-01-05T04:12:50.792Z,24.6
2019-01-05T04:13:41.321Z,24.6
2019-01-05T04:14:30.299Z,24.6
2019-01-05T04:15:21.757Z,24.6
2019-01-05T04:16:11.238Z,24.6
2019-01-05T04:17:01.028Z,24.6
2019-01-05T04:17:51.358Z,24.6
2019-01-05T04:18:40.872Z,24.6
2019-01-05T04:19:32.040Z,24.6
2019-01-05T04:20:20.415Z,24.6
2019-01-05T04:21:10.774Z,24.6
2019-01-05T04:22:01.376Z,24.6
2019-01-05T04:22:51.636Z,24.6
2019-01-05T04:23:41.502Z,24.6
2019-01-05T04:24:31.815Z,24.7
2019-01-05T04:25:22.578Z,24.7
2019-01-05T04:26:11.129Z,24.7
2019-01-05T04:27:02.556Z,24.7
2019-01-05T04:27:52.068Z,24.7
2019-01-05T04:28:41.815Z,24.8
2019-01-05T04:29:31.916Z,24.8
2019-01-05T04:30:23.788Z,24.8
2019-01-05T04:31:12.551Z,24.8
2019-01-05T04:32:01.244Z,24.8
2019-01-05T04:32:52.407Z,24.8
2019-01-05T04:33:41.893Z,24.8
2019-01-05T04:34:32.560Z,24.8
2019-01-05T04:35:22.261Z,24.8
2019-01-05T04:36:11.859Z,24.9
2019-01-05T04:37:02.410Z,24.9
2019-01-05T04:37:52.565Z,24.9
2019-01-05T04:38:42.219Z,24.9
2019-01-05T04:39:33.397Z,24.9
2019-01-05T04:40:23.149Z,24.9
2019-01-05T04:41:13.377Z,24.9
2019-01-05T04:42:03.598Z,24.8
2019-01-05T04:42:51.969Z,24.8
2019-01-05T04:43:43.149Z,24.9
2019-01-05T04:44:32.432Z,24.9
2019-01-05T04:45:23.515Z,24.9
2019-01-05T05:02:42.981Z,24.9
2019-01-05T05:03:32.465Z,24.9
2019-01-05T05:04:22.536Z,24.9
2019-01-05T05:05:13.166Z,24.9
2019-01-05T05:06:02.865Z,24.9
2019-01-05T05:06:52.719Z,24.9
2019-01-05T05:07:43.738Z,25
2019-01-05T05:08:33.085Z,25
2019-01-05T05:09:22.038Z,25
2019-01-05T05:10:13.795Z,24.9
2019-01-05T05:11:02.606Z,24.9
2019-01-05T05:11:53.050Z,24.8
2019-01-05T05:12:43.712Z,24.7
2019-01-05T05:13:33.095Z,24.6
2019-01-05T05:14:23.197Z,24.6
2019-01-05T05:15:13.280Z,24.6
2019-01-05T05:16:03.627Z,24.6
2019-01-05T05:16:53.155Z,24.6
2019-01-05T05:17:43.943Z,24.6
2019-01-05T05:18:34.317Z,24.6
2019-01-05T05:19:22.965Z,24.6
2019-01-05T05:20:14.447Z,24.6
2019-01-05T05:21:03.653Z,24.6
2019-01-05T05:21:53.265Z,24.6
2019-01-05T05:22:43.581Z,24.5
2019-01-05T05:23:34.174Z,24.4
2019-01-05T05:24:23.629Z,24.4
2019-01-05T05:25:14.447Z,24.4
2019-01-05T05:26:03.766Z,24.4
2019-01-05T05:26:53.261Z,24.4
2019-01-05T05:27:43.970Z,24.4
2019-01-05T05:28:34.761Z,24.4
2019-01-05T05:29:24.051Z,24.4
2019-01-05T05:30:14.344Z,24.3
2019-01-05T05:31:04.685Z,24.3
2019-01-05T05:31:54.624Z,24.2
2019-01-05T05:32:44.084Z,24.1
2019-01-05T05:33:34.196Z,24.1
2019-01-05T05:34:24.792Z,24.1
2019-01-05T05:35:14.821Z,24.1
2019-01-05T05:36:04.628Z,24.1
2019-01-05T05:36:54.729Z,24
2019-01-05T05:37:45.304Z,23.9
2019-01-05T05:38:34.801Z,23.9
2019-01-05T05:39:25.136Z,23.9
2019-01-05T05:40:14.736Z,23.9
2019-01-05T05:41:04.726Z,23.9
2019-01-05T05:41:55.236Z,23.9
2019-01-05T05:42:44.512Z,23.9
2019-01-05T05:43:36.223Z,23.9
2019-01-05T05:44:26.082Z,23.9
2019-01-05T05:45:15.584Z,23.9
2019-01-05T05:46:05.593Z,24
2019-01-05T05:46:54.639Z,24
2019-01-05T05:47:45.935Z,24
2019-01-05T05:48:35.505Z,24
2019-01-05T05:49:26.428Z,24
2019-01-05T05:50:15.895Z,24
2019-01-05T05:51:05.661Z,23.9
2019-01-05T05:51:56.365Z,23.9
2019-01-05T05:52:46.380Z,23.9
2019-01-05T05:53:35.588Z,23.9
2019-01-05T05:54:25.123Z,23.9
2019-01-05T05:55:16.258Z,23.9
2019-01-05T05:56:05.450Z,23.8
2019-01-05T05:56:56.547Z,23.8
2019-01-05T05:57:45.873Z,23.8
2019-01-05T05:58:36.458Z,23.8
2019-01-05T05:59:26.793Z,23.8
2019-01-05T06:00:16.012Z,23.8
2019-01-05T06:01:06.912Z,23.8
2019-01-05T06:01:56.162Z,23.8
2019-01-05T06:02:46.971Z,23.7
2019-01-05T06:03:37.063Z,23.7
2019-01-05T06:04:27.142Z,23.7
2019-01-05T06:05:16.617Z,23.7
2019-01-05T06:06:06.942Z,23.6
2019-01-05T06:06:56.722Z,23.6
2019-01-05T06:07:46.210Z,23.6
2019-01-05T06:08:37.347Z,23.6
2019-01-05T06:09:27.204Z,23.6
2019-01-05T06:10:17.211Z,23.6
2019-01-05T06:11:07.625Z,23.5
2019-01-05T06:11:57.352Z,23.5
2019-01-05T06:12:47.356Z,23.5
2019-01-05T06:13:37.209Z,23.5
2019-01-05T06:14:27.496Z,23.4
2019-01-05T06:15:17.852Z,23.4
2019-01-05T06:16:06.781Z,23.4
2019-01-05T06:16:56.871Z,23.4
2019-01-05T06:17:47.167Z,23.4
2019-01-05T06:18:37.235Z,23.3
2019-01-05T06:19:28.406Z,23.3
2019-01-05T06:20:17.358Z,23.2
2019-01-05T06:21:07.686Z,23.3
2019-01-05T06:21:57.771Z,23.3
2019-01-05T06:22:48.106Z,23.3
2019-01-05T06:23:38.086Z,23.3
2019-01-05T06:24:28.523Z,23.3
2019-01-05T06:25:18.462Z,23.3
2019-01-05T06:26:08.319Z,23.3
2019-01-05T06:26:57.786Z,23.3
2019-01-05T06:27:47.908Z,23.3
2019-01-05T06:28:38.969Z,23.3
2019-01-05T06:29:28.237Z,23.3
2019-01-05T06:30:18.844Z,23.3
2019-01-05T06:31:08.632Z,23.2
2019-01-05T06:31:58.384Z,23.2
2019-01-05T06:32:48.174Z,23.2
2019-01-05T06:33:38.874Z,23.2
2019-01-05T06:34:29.497Z,23.2
2019-01-05T06:35:19.041Z,23.2
2019-01-05T06:36:08.197Z,23.1
2019-01-05T06:36:58.752Z,23.1
2019-01-05T06:37:48.519Z,23.1
2019-01-05T06:38:39.189Z,23.1
2019-01-05T06:39:28.981Z,23.1
2019-01-05T06:40:19.259Z,23.1
2019-01-05T06:41:10.136Z,23.1
2019-01-05T06:41:59.096Z,23.1
2019-01-05T06:42:49.178Z,23.1
2019-01-05T06:43:39.206Z,23.1
2019-01-05T06:44:30.609Z,23
2019-01-05T06:45:19.838Z,23
2019-01-05T06:46:09.393Z,23.1
2019-01-05T06:46:59.436Z,23
2019-01-05T06:47:49.489Z,23
2019-01-05T06:48:39.826Z,22.9
2019-01-05T06:49:29.873Z,23
2019-01-05T06:50:19.910Z,22.9
2019-01-05T06:51:10.261Z,22.9
2019-01-05T06:52:00.045Z,22.9
2019-01-05T06:52:48.993Z,22.9
2019-01-05T06:53:40.125Z,22.9
2019-01-05T06:54:30.220Z,22.9
2019-01-05T06:55:20.788Z,22.9
2019-01-05T06:56:09.755Z,22.9
2019-01-05T06:57:00.641Z,22.9
2019-01-05T06:57:50.435Z,22.9
2019-01-05T06:58:39.950Z,22.9
2019-01-05T06:59:29.730Z,22.9
2019-01-05T07:00:20.830Z,22.9
2019-01-05T07:01:09.917Z,22.8
2019-01-05T07:01:59.672Z,22.8
2019-01-05T07:02:50.555Z,22.8
2019-01-05T07:03:40.100Z,22.8
2019-01-05T07:04:30.411Z,22.8
2019-01-05T07:05:20.712Z,22.8
2019-01-05T07:06:10.181Z,22.8
2019-01-05T07:07:00.768Z,22.8
2019-01-05T07:07:51.107Z,22.8
2019-01-05T07:08:40.613Z,22.8
2019-01-05T07:09:30.949Z,22.8
2019-01-05T07:10:21.264Z,22.8
2019-01-05T07:11:11.062Z,22.8
2019-01-05T07:12:01.156Z,22.7
2019-01-05T07:12:51.731Z,22.7
2019-01-05T07:13:41.577Z,22.7
2019-01-05T07:14:31.893Z,22.7
2019-01-05T07:15:21.383Z,22.7
2019-01-05T07:16:11.686Z,22.6
2019-01-05T07:17:02.324Z,22.6
2019-01-05T07:17:51.774Z,22.5
2019-01-05T07:18:41.579Z,22.3
2019-01-05T07:19:31.646Z,22.3
2019-01-05T07:20:21.941Z,22.3
2019-01-05T07:21:11.516Z,22.2
2019-01-05T07:22:01.083Z,22.1
2019-01-05T07:22:52.328Z,22.1
2019-01-05T07:23:41.903Z,22.1
2019-01-05T07:24:32.791Z,22
2019-01-05T07:25:22.074Z,21.9
2019-01-05T07:26:12.909Z,21.9
2019-01-05T07:27:02.975Z,21.9
2019-01-05T07:27:52.463Z,21.9
2019-01-05T07:28:42.518Z,21.8
2019-01-05T07:29:32.306Z,21.8
2019-01-05T07:30:22.926Z,21.8
2019-01-05T07:31:12.709Z,21.8
2019-01-05T07:32:02.498Z,21.7
2019-01-05T07:32:53.128Z,21.6
2019-01-05T07:33:42.287Z,21.6
2019-01-05T07:34:32.375Z,21.6
2019-01-05T07:35:22.972Z,21.4
2019-01-05T07:36:13.008Z,21.4
2019-01-05T07:37:02.540Z,21.3
2019-01-05T07:37:53.140Z,21.3
2019-01-05T07:38:43.195Z,21.2
2019-01-05T07:40:23.045Z,21.1
2019-01-05T07:41:13.022Z,21
2019-01-05T07:42:03.680Z,20.9
2019-01-05T07:42:52.669Z,20.9
2019-01-05T07:43:43.597Z,20.8
2019-01-05T07:44:33.862Z,20.8
2019-01-05T07:45:23.425Z,20.8
2019-01-05T07:46:12.954Z,20.8
2019-01-05T07:47:03.815Z,20.7
2019-01-05T07:47:53.591Z,20.7
2019-01-05T07:48:44.169Z,20.7
2019-01-05T07:49:34.507Z,20.7
2019-01-05T07:50:23.984Z,20.6
2019-01-05T07:51:14.089Z,20.6
2019-01-05T07:52:03.880Z,20.6
2019-01-05T07:52:53.892Z,20.6
2019-01-05T07:53:44.519Z,20.6
2019-01-05T07:54:34.554Z,20.6
2019-01-05T07:55:24.691Z,20.6
2019-01-05T07:56:14.386Z,20.6
2019-01-05T07:57:04.184Z,20.6
2019-01-05T07:57:54.518Z,20.6
2019-01-05T07:58:44.296Z,20.6
2019-01-05T07:59:35.192Z,20.6
2019-01-05T08:00:25.229Z,20.5
2019-01-05T08:01:13.912Z,20.5
2019-01-05T08:02:04.346Z,20.5
2019-01-05T08:02:54.891Z,20.5
2019-01-05T08:03:44.910Z,20.4
2019-01-05T08:04:34.196Z,20.4
2019-01-05T08:05:24.871Z,20.4
2019-01-05T08:06:16.517Z,20.4
2019-01-05T08:07:05.462Z,20.4
2019-01-05T08:07:55.044Z,20.4
2019-01-05T08:08:44.503Z,20.4
2019-01-05T08:09:34.832Z,20.4
2019-01-05T08:10:25.155Z,20.4
2019-01-05T08:11:14.608Z,20.4
2019-01-05T08:12:05.270Z,20.4
2019-01-05T08:12:54.541Z,20.3
2019-01-05T08:13:45.599Z,20.3
2019-01-05T08:14:35.108Z,20.4
2019-01-05T08:15:25.728Z,20.3
2019-01-05T08:16:15.783Z,20.3
2019-01-05T08:17:06.116Z,20.3
2019-01-05T08:17:55.340Z,20.3
2019-01-05T08:18:45.722Z,20.3
2019-01-05T08:19:35.150Z,20.4
2019-01-05T08:20:25.296Z,20.4
2019-01-05T08:21:15.290Z,20.3
2019-01-05T08:22:06.692Z,20.3
2019-01-05T08:22:55.868Z,20.3
2019-01-05T08:23:46.013Z,20.1
2019-01-05T08:24:36.607Z,20
2019-01-05T08:25:25.557Z,19.9
2019-01-05T08:26:15.459Z,19.9
2019-01-05T08:27:06.032Z,20
2019-01-05T08:27:56.262Z,20
2019-01-05T08:28:46.942Z,20.1
2019-01-05T08:29:36.457Z,20.1
2019-01-05T08:30:26.236Z,20.1
2019-01-05T08:31:16.802Z,20.1
2019-01-05T08:32:06.915Z,20.2
2019-01-05T08:32:56.337Z,20.3
2019-01-05T08:33:47.505Z,20.4
2019-01-05T08:34:36.215Z,20.5
2019-01-05T08:35:27.829Z,20.6
2019-01-05T08:36:15.824Z,20.6
2019-01-05T08:37:06.129Z,20.8
2019-01-05T08:37:56.755Z,20.8
2019-01-05T08:38:46.443Z,20.9
2019-01-05T08:39:37.472Z,20.9
2019-01-05T08:40:26.924Z,20.9
2019-01-05T08:41:16.971Z,21
2019-01-05T08:42:07.695Z,21.1
2019-01-05T08:44:36.649Z,21.2
2019-01-05T08:45:27.546Z,21.3
2019-01-05T08:46:17.331Z,21.3
2019-01-05T08:47:07.663Z,21.3
2019-01-05T08:47:57.756Z,21.3
2019-01-05T08:48:47.798Z,21.3
2019-01-05T08:49:37.035Z,21.4
2019-01-05T08:50:27.912Z,21.4
2019-01-05T08:51:17.931Z,21.4
2019-01-05T08:52:07.398Z,21.4
2019-01-05T08:52:57.559Z,21.4
2019-01-05T08:53:48.061Z,21.4
2019-01-05T08:54:37.691Z,21.4
2019-01-05T08:55:27.648Z,21.4
2019-01-05T08:56:18.265Z,21.4
2019-01-05T08:57:07.488Z,21.4
2019-01-05T08:57:57.582Z,21.4
2019-01-05T08:58:48.193Z,21.4
2019-01-05T08:59:39.006Z,21.4
2019-01-05T09:00:29.049Z,21.4
2019-01-05T09:01:17.708Z,21.4
2019-01-05T09:17:10.157Z,21.4
2019-01-05T09:17:59.909Z,21.4
2019-01-05T09:18:49.224Z,21.4
2019-01-05T09:19:39.738Z,21.4
2019-01-05T09:20:30.079Z,21.4
2019-01-05T09:21:19.839Z,21.4
2019-01-05T09:22:10.386Z,21.4
2019-01-05T09:23:00.306Z,21.4
2019-01-05T09:23:49.769Z,21.4
2019-01-05T09:24:38.976Z,21.4
2019-01-05T09:25:30.691Z,21.4
2019-01-05T09:26:19.901Z,21.4
2019-01-05T09:27:09.936Z,21.4
2019-01-05T09:28:00.259Z,21.4
2019-01-05T09:28:50.623Z,21.4
2019-01-05T09:29:40.407Z,21.4
2019-01-05T09:30:29.371Z,21.4
2019-01-05T09:31:20.533Z,21.5
2019-01-05T09:32:09.758Z,21.5
2019-01-05T09:33:00.370Z,21.6
2019-01-05T09:33:50.683Z,21.6
2019-01-05T09:34:41.054Z,21.6
2019-01-05T09:35:30.010Z,21.6
2019-01-05T09:36:21.148Z,21.7
2019-01-05T09:37:10.779Z,21.7
2019-01-05T09:38:00.175Z,21.8
2019-01-05T09:38:51.336Z,21.8
2019-01-05T09:39:40.317Z,21.8
2019-01-05T09:40:31.028Z,21.8
2019-01-05T09:41:21.488Z,21.8
2019-01-05T09:42:11.103Z,21.8
2019-01-05T09:43:01.416Z,21.8
2019-01-05T09:43:51.930Z,21.8
2019-01-05T09:44:40.860Z,21.8
2019-01-05T09:45:31.513Z,21.9
2019-01-05T09:46:20.723Z,21.9
2019-01-05T09:47:10.973Z,21.9
2019-01-05T09:48:02.033Z,21.9
2019-01-05T09:48:51.713Z,21.9
2019-01-05T09:49:41.780Z,21.9
2019-01-05T09:50:31.019Z,21.9
2019-01-05T09:51:22.170Z,21.9
2019-01-05T09:52:12.472Z,21.9
2019-01-05T09:53:02.000Z,21.9
2019-01-05T09:53:52.062Z,22
2019-01-05T09:54:41.622Z,21.9
2019-01-05T09:55:31.650Z,22
2019-01-05T09:56:20.582Z,22
2019-01-05T09:57:11.994Z,22.1
2019-01-05T09:58:02.840Z,22.1
2019-01-05T09:58:52.397Z,22.1
2019-01-05T09:59:42.547Z,22.1
2019-01-05T10:00:31.967Z,22.1
2019-01-05T10:01:22.647Z,22.1
2019-01-05T10:02:12.092Z,22.1
2019-01-05T10:03:01.407Z,22.1
2019-01-05T10:03:52.544Z,22.1
2019-01-05T10:04:41.996Z,22.1
2019-01-05T10:05:33.472Z,22.1
2019-01-05T10:06:22.736Z,22.2
2019-01-05T10:07:13.269Z,22.1
2019-01-05T10:08:03.354Z,22.2
2019-01-05T10:08:52.857Z,22.2
2019-01-05T10:09:42.910Z,22.2
2019-01-05T10:10:32.688Z,22.2
2019-01-05T10:11:23.053Z,22.3
2019-01-05T10:12:13.056Z,22.2
2019-01-05T10:13:03.739Z,22.3
2019-01-05T10:13:54.014Z,22.3
2019-01-05T10:14:43.238Z,22.3
2019-01-05T10:15:33.606Z,22.3
2019-01-05T10:16:23.663Z,22.3
2019-01-05T10:17:13.166Z,22.3
2019-01-05T10:18:05.182Z,22.3
2019-01-05T10:18:52.701Z,22.3
2019-01-05T10:19:44.106Z,22.3
2019-01-05T10:20:33.093Z,22.4
2019-01-05T10:21:23.451Z,22.4
2019-01-05T10:22:14.062Z,22.4
2019-01-05T10:23:04.662Z,22.4
2019-01-05T10:23:54.430Z,22.4
2019-01-05T10:24:43.423Z,22.4
2019-01-05T10:25:33.693Z,22.4
2019-01-05T10:26:23.810Z,22.4
2019-01-05T10:27:13.535Z,22.4
2019-01-05T10:28:03.968Z,22.4
2019-01-05T10:28:53.970Z,22.4
2019-01-05T10:29:44.262Z,22.4
2019-01-05T10:30:34.333Z,22.4
2019-01-05T10:31:24.365Z,22.4
2019-01-05T10:32:14.388Z,22.4
2019-01-05T10:33:04.220Z,22.4
2019-01-05T10:33:55.117Z,22.5
2019-01-05T10:34:45.155Z,22.5
2019-01-05T10:35:34.367Z,22.5
2019-01-05T10:36:24.684Z,22.6
2019-01-05T10:37:14.490Z,22.6
2019-01-05T10:38:05.107Z,22.5
2019-01-05T10:38:54.847Z,22.6
2019-01-05T10:39:44.924Z,22.6
2019-01-05T10:40:34.707Z,22.6
2019-01-05T10:41:24.819Z,22.6
2019-01-05T10:42:15.147Z,22.6
2019-01-05T10:43:05.432Z,22.6
2019-01-05T10:43:55.800Z,22.7
2019-01-05T10:44:45.009Z,22.7
2019-01-05T10:45:35.611Z,22.7
2019-01-05T10:46:24.826Z,22.8
2019-01-05T10:47:15.434Z,22.8
2019-01-05T10:48:06.316Z,22.8
2019-01-05T10:48:56.164Z,22.8
2019-01-05T10:49:45.105Z,22.8
2019-01-05T10:50:35.429Z,22.8
2019-01-05T10:51:25.722Z,22.9
2019-01-05T10:52:14.949Z,22.9
2019-01-05T10:53:05.316Z,22.9
2019-01-05T10:53:55.881Z,22.9
2019-01-05T10:54:45.946Z,22.9
2019-01-05T10:55:36.014Z,22.9
2019-01-05T10:56:24.971Z,22.9
2019-01-05T10:57:16.256Z,22.9
2019-01-05T10:58:05.916Z,22.9
2019-01-05T10:58:56.528Z,22.9
2019-01-05T10:59:46.306Z,22.9
2019-01-05T11:00:36.347Z,22.9
2019-01-05T11:01:26.765Z,22.9
2019-01-05T11:02:16.482Z,22.9
2019-01-05T11:03:06.008Z,22.9
2019-01-05T11:03:58.399Z,22.9
2019-01-05T11:04:46.946Z,22.9
2019-01-05T11:05:35.959Z,22.9
2019-01-05T11:06:26.555Z,22.9
2019-01-05T11:07:16.815Z,22.9
2019-01-05T11:08:06.851Z,22.9
2019-01-05T11:08:56.978Z,23
2019-01-05T11:09:45.545Z,22.9
2019-01-05T11:10:37.295Z,22.9
2019-01-05T11:11:27.088Z,22.9
2019-01-05T11:12:17.423Z,22.9
2019-01-05T11:13:05.912Z,23
2019-01-05T11:13:57.530Z,23
2019-01-05T11:14:48.463Z,23.1
2019-01-05T11:15:37.355Z,23.1
2019-01-05T11:16:27.713Z,23.1
2019-01-05T11:17:17.561Z,23
2019-01-05T11:18:08.107Z,23
2019-01-05T11:18:58.500Z,23
2019-01-05T11:19:47.665Z,23
2019-01-05T11:20:42.013Z,23
2019-01-05T11:21:28.666Z,23.1
2019-01-05T11:22:18.185Z,23.1
2019-01-05T11:23:08.175Z,23.1
2019-01-05T11:23:58.819Z,23.1
2019-01-05T11:24:47.445Z,23.1
2019-01-05T11:25:38.677Z,23.1
2019-01-05T11:26:28.182Z,23.1
2019-01-05T11:27:17.904Z,23.1
2019-01-05T11:28:08.262Z,23.1
2019-01-05T11:28:58.900Z,23.1
2019-01-05T11:29:48.647Z,23.1
2019-01-05T11:30:37.870Z,23.1
2019-01-05T11:31:28.899Z,23.1
2019-01-05T11:32:18.276Z,23.1
2019-01-05T11:33:08.969Z,23
2019-01-05T11:33:59.279Z,23.1
2019-01-05T11:34:48.978Z,23.1
2019-01-05T11:35:39.339Z,23.1
2019-01-05T11:36:29.403Z,23.1
2019-01-05T11:37:18.341Z,23.2
2019-01-05T11:38:08.956Z,23.2
2019-01-05T11:38:59.551Z,23.2
2019-01-05T11:39:49.369Z,23.2
2019-01-05T11:40:38.863Z,23.1
2019-01-05T11:41:29.704Z,23.2
2019-01-05T11:42:19.114Z,23.1
2019-01-05T11:43:09.664Z,23.2
2019-01-05T11:43:59.421Z,23.2
2019-01-05T11:44:48.896Z,23.2
2019-01-05T11:45:39.596Z,23.2
2019-01-05T11:46:30.176Z,23.3
2019-01-05T11:47:19.851Z,23.2
2019-01-05T11:48:10.453Z,23.3
2019-01-05T11:49:00.003Z,23.3
2019-01-05T11:49:50.558Z,23.3
2019-01-05T11:50:40.040Z,23.3
2019-01-05T11:51:29.628Z,23.3
2019-01-05T11:52:19.928Z,23.3
2019-01-05T11:53:10.227Z,23.3
2019-01-05T11:54:00.368Z,23.3
2019-01-05T11:54:49.820Z,23.3
2019-01-05T11:55:41.005Z,23.3
2019-01-05T11:56:30.208Z,23.4
2019-01-05T11:57:20.303Z,23.4
2019-01-05T11:58:10.358Z,23.4
2019-01-05T11:59:00.110Z,23.4
2019-01-05T11:59:51.040Z,23.4